AUA18T LOWW-LOWI
Flight info
| Callsign | AUA18T |
|---|---|
| Flight time | 0h 45m |
| Altitude | 30000 |
| Route | SOVIL DCT SITNI DCT BAGSI DCT NANIT NANIT2A |
| Aircraft | E195/M-SDE3GILORVW/S |
Departure
| Time | 2026-05-06 17:59 |
|---|---|
| Airport | Vienna International Airport (LOWW) |
Arrival
| Time | 2026-05-06 18:44 |
|---|---|
| Airport | Innsbruck Airport (LOWI) |
| Time | Latitude | Longitude | Altitude | Speed | Heading |
|---|---|---|---|---|---|
| 2026-05-06 17:20 | 48.12018 | 16.55612 | 599 ft | 0 kts | 112° |
| 2026-05-06 17:49 | 48.12024 | 16.55590 | 599 ft | 3 kts | 112° |
| 2026-05-06 17:50 | 48.12031 | 16.55564 | 599 ft | 3 kts | 112° |
| 2026-05-06 17:50 | 48.12043 | 16.55545 | 599 ft | 3 kts | 192° |
| 2026-05-06 17:50 | 48.12048 | 16.55545 | 598 ft | 0 kts | 219° |
| 2026-05-06 17:52 | 48.12035 | 16.55530 | 599 ft | 3 kts | 219° |
| 2026-05-06 17:52 | 48.12008 | 16.55506 | 601 ft | 6 kts | 206° |
| 2026-05-06 17:52 | 48.11960 | 16.55472 | 616 ft | 9 kts | 203° |
| 2026-05-06 17:53 | 48.11888 | 16.55468 | 613 ft | 13 kts | 158° |
| 2026-05-06 17:53 | 48.11845 | 16.55601 | 619 ft | 17 kts | 111° |
| 2026-05-06 17:53 | 48.11796 | 16.55783 | 620 ft | 21 kts | 116° |
| 2026-05-06 17:53 | 48.11731 | 16.55984 | 625 ft | 21 kts | 116° |
| 2026-05-06 17:54 | 48.11661 | 16.56181 | 619 ft | 22 kts | 119° |
| 2026-05-06 17:54 | 48.11590 | 16.56392 | 611 ft | 23 kts | 115° |
| 2026-05-06 17:54 | 48.11521 | 16.56609 | 617 ft | 23 kts | 117° |
| 2026-05-06 17:54 | 48.11452 | 16.56817 | 622 ft | 22 kts | 116° |
| 2026-05-06 17:55 | 48.11384 | 16.57022 | 625 ft | 21 kts | 116° |
| 2026-05-06 17:55 | 48.11322 | 16.57214 | 619 ft | 18 kts | 116° |
| 2026-05-06 17:55 | 48.11312 | 16.57305 | 616 ft | 9 kts | 56° |
| 2026-05-06 17:55 | 48.11368 | 16.57365 | 620 ft | 13 kts | 28° |
| 2026-05-06 17:56 | 48.11464 | 16.57436 | 621 ft | 18 kts | 25° |
| 2026-05-06 17:56 | 48.11586 | 16.57444 | 613 ft | 19 kts | 340° |
| 2026-05-06 17:56 | 48.11717 | 16.57379 | 608 ft | 21 kts | 343° |
| 2026-05-06 17:56 | 48.11835 | 16.57342 | 602 ft | 17 kts | 346° |
| 2026-05-06 17:57 | 48.11960 | 16.57323 | 600 ft | 19 kts | 26° |
| 2026-05-06 17:57 | 48.12005 | 16.57492 | 599 ft | 18 kts | 100° |
| 2026-05-06 17:57 | 48.11979 | 16.57684 | 596 ft | 20 kts | 106° |
| 2026-05-06 17:57 | 48.11907 | 16.57844 | 601 ft | 18 kts | 157° |
| 2026-05-06 17:58 | 48.11781 | 16.57903 | 603 ft | 24 kts | 165° |
| 2026-05-06 17:58 | 48.11322 | 16.58098 | 607 ft | 114 kts | 164° |
| 2026-05-06 17:58 | 48.10321 | 16.58518 | 698 ft | 175 kts | 165° |
| 2026-05-06 17:58 | 48.09045 | 16.59100 | 1052 ft | 206 kts | 163° |
| 2026-05-06 17:59 | 48.07640 | 16.59709 | 1818 ft | 211 kts | 166° |
| 2026-05-06 17:59 | 48.06183 | 16.60188 | 2558 ft | 223 kts | 180° |
| 2026-05-06 17:59 | 48.04663 | 16.59441 | 3015 ft | 246 kts | 218° |
| 2026-05-06 17:59 | 48.03487 | 16.57524 | 3781 ft | 258 kts | 235° |
| 2026-05-06 18:00 | 48.02499 | 16.55248 | 4714 ft | 264 kts | 239° |
| 2026-05-06 18:00 | 48.01541 | 16.52882 | 5134 ft | 268 kts | 239° |
| 2026-05-06 18:00 | 48.00572 | 16.50499 | 6095 ft | 269 kts | 243° |
| 2026-05-06 18:00 | 48.00033 | 16.47820 | 6884 ft | 275 kts | 266° |
| 2026-05-06 18:01 | 48.00096 | 16.44968 | 7156 ft | 274 kts | 274° |
| 2026-05-06 18:01 | 48.00236 | 16.42118 | 7243 ft | 274 kts | 274° |
| 2026-05-06 18:01 | 48.00381 | 16.39287 | 7257 ft | 274 kts | 274° |
| 2026-05-06 18:01 | 48.00525 | 16.36454 | 7298 ft | 287 kts | 274° |
| 2026-05-06 18:02 | 48.00677 | 16.33341 | 7700 ft | 312 kts | 274° |
| 2026-05-06 18:02 | 48.00835 | 16.29986 | 8061 ft | 336 kts | 274° |
| 2026-05-06 18:02 | 48.01001 | 16.26392 | 8499 ft | 353 kts | 274° |
| 2026-05-06 18:02 | 48.01168 | 16.22691 | 9224 ft | 360 kts | 274° |
| 2026-05-06 18:03 | 48.01335 | 16.18939 | 9999 ft | 365 kts | 274° |
| 2026-05-06 18:03 | 48.01503 | 16.15131 | 10772 ft | 369 kts | 274° |
| 2026-05-06 18:03 | 48.01671 | 16.11272 | 11492 ft | 374 kts | 274° |
| 2026-05-06 18:03 | 48.01838 | 16.07372 | 12230 ft | 378 kts | 274° |
| 2026-05-06 18:04 | 48.02004 | 16.03427 | 12955 ft | 382 kts | 274° |
| 2026-05-06 18:04 | 48.02173 | 15.99444 | 13666 ft | 386 kts | 274° |
| 2026-05-06 18:04 | 48.02345 | 15.95426 | 14340 ft | 390 kts | 274° |
| 2026-05-06 18:04 | 48.02520 | 15.91344 | 14975 ft | 395 kts | 274° |
| 2026-05-06 18:05 | 48.02696 | 15.87152 | 15101 ft | 413 kts | 274° |
| 2026-05-06 18:05 | 48.02878 | 15.82802 | 15266 ft | 426 kts | 274° |
| 2026-05-06 18:05 | 48.03060 | 15.78405 | 15679 ft | 430 kts | 273° |
| 2026-05-06 18:05 | 48.03241 | 15.73935 | 16150 ft | 433 kts | 273° |
| 2026-05-06 18:06 | 48.03421 | 15.69425 | 16589 ft | 436 kts | 273° |
| 2026-05-06 18:06 | 48.03598 | 15.64890 | 17023 ft | 439 kts | 273° |
| 2026-05-06 18:06 | 48.03774 | 15.60310 | 17452 ft | 441 kts | 273° |
| 2026-05-06 18:06 | 48.03952 | 15.55715 | 17862 ft | 444 kts | 273° |
| 2026-05-06 18:07 | 48.04131 | 15.51088 | 18252 ft | 447 kts | 273° |
| 2026-05-06 18:07 | 48.04309 | 15.46425 | 18614 ft | 451 kts | 273° |
| 2026-05-06 18:07 | 48.04485 | 15.41746 | 19006 ft | 452 kts | 273° |
| 2026-05-06 18:07 | 48.04659 | 15.37081 | 19886 ft | 438 kts | 273° |
| 2026-05-06 18:08 | 48.04787 | 15.32687 | 21202 ft | 421 kts | 272° |
| 2026-05-06 18:08 | 48.04869 | 15.28346 | 22045 ft | 416 kts | 271° |
| 2026-05-06 18:08 | 48.04919 | 15.24036 | 22709 ft | 414 kts | 271° |
| 2026-05-06 18:08 | 48.04956 | 15.19744 | 23368 ft | 412 kts | 271° |
| 2026-05-06 18:09 | 48.04997 | 15.15465 | 24012 ft | 411 kts | 271° |
| 2026-05-06 18:09 | 48.05050 | 15.11203 | 24630 ft | 410 kts | 271° |
| 2026-05-06 18:09 | 48.05109 | 15.06945 | 25230 ft | 409 kts | 271° |
| 2026-05-06 18:09 | 48.05172 | 15.02702 | 25826 ft | 408 kts | 271° |
| 2026-05-06 18:10 | 48.05236 | 14.98464 | 26161 ft | 408 kts | 271° |
| 2026-05-06 18:10 | 48.05297 | 14.94219 | 26247 ft | 408 kts | 271° |
| 2026-05-06 18:10 | 48.05351 | 14.89982 | 26259 ft | 407 kts | 271° |
| 2026-05-06 18:10 | 48.05401 | 14.85745 | 26259 ft | 407 kts | 271° |
| 2026-05-06 18:11 | 48.05449 | 14.81498 | 26284 ft | 414 kts | 271° |
| 2026-05-06 18:11 | 48.05490 | 14.77193 | 26422 ft | 424 kts | 271° |
| 2026-05-06 18:11 | 48.05526 | 14.72745 | 26766 ft | 428 kts | 270° |
| 2026-05-06 18:11 | 48.05558 | 14.68251 | 27053 ft | 434 kts | 270° |
| 2026-05-06 18:12 | 48.05589 | 14.63696 | 27373 ft | 438 kts | 270° |
| 2026-05-06 18:12 | 48.05617 | 14.59188 | 27821 ft | 438 kts | 270° |
| 2026-05-06 18:12 | 48.05646 | 14.54629 | 28313 ft | 438 kts | 270° |
| 2026-05-06 18:12 | 48.05674 | 14.50077 | 28808 ft | 437 kts | 270° |
| 2026-05-06 18:13 | 48.05702 | 14.45545 | 29298 ft | 436 kts | 270° |
| 2026-05-06 18:13 | 48.05726 | 14.41019 | 29784 ft | 435 kts | 270° |
| 2026-05-06 18:13 | 48.05748 | 14.36492 | 29968 ft | 435 kts | 270° |
| 2026-05-06 18:13 | 48.05626 | 14.31979 | 30026 ft | 434 kts | 263° |
| 2026-05-06 18:14 | 48.03927 | 14.23351 | 30004 ft | 434 kts | 244° |
| 2026-05-06 18:14 | 48.01238 | 14.15258 | 30010 ft | 435 kts | 244° |
| 2026-05-06 18:15 | 47.99897 | 14.11209 | 29898 ft | 432 kts | 244° |
| 2026-05-06 18:15 | 47.98585 | 14.07247 | 29708 ft | 419 kts | 244° |
| 2026-05-06 18:15 | 47.97315 | 14.03407 | 29573 ft | 405 kts | 244° |
| 2026-05-06 18:15 | 47.96101 | 13.99749 | 29423 ft | 393 kts | 244° |
| 2026-05-06 18:16 | 47.94891 | 13.96118 | 29098 ft | 387 kts | 244° |
| 2026-05-06 18:16 | 47.93694 | 13.92531 | 28711 ft | 384 kts | 244° |
| 2026-05-06 18:16 | 47.92506 | 13.88970 | 28299 ft | 381 kts | 244° |
| 2026-05-06 18:16 | 47.91323 | 13.85432 | 27888 ft | 379 kts | 244° |
| 2026-05-06 18:17 | 47.90149 | 13.81932 | 27460 ft | 376 kts | 244° |
| 2026-05-06 18:17 | 47.88979 | 13.78457 | 27059 ft | 374 kts | 244° |
| 2026-05-06 18:17 | 47.87819 | 13.75016 | 26647 ft | 370 kts | 244° |
| 2026-05-06 18:17 | 47.86666 | 13.71595 | 26208 ft | 368 kts | 244° |
| 2026-05-06 18:18 | 47.85521 | 13.68194 | 25766 ft | 366 kts | 244° |
| 2026-05-06 18:18 | 47.84385 | 13.64819 | 25331 ft | 363 kts | 244° |
| 2026-05-06 18:18 | 47.83256 | 13.61471 | 24868 ft | 361 kts | 244° |
| 2026-05-06 18:18 | 47.82128 | 13.58134 | 24361 ft | 361 kts | 243° |
| 2026-05-06 18:19 | 47.81001 | 13.54811 | 23939 ft | 357 kts | 243° |
| 2026-05-06 18:19 | 47.79889 | 13.51537 | 23549 ft | 353 kts | 243° |
| 2026-05-06 18:19 | 47.78788 | 13.48292 | 23125 ft | 350 kts | 243° |
| 2026-05-06 18:19 | 47.77693 | 13.45069 | 22668 ft | 349 kts | 243° |
| 2026-05-06 18:20 | 47.76595 | 13.41843 | 22168 ft | 348 kts | 243° |
| 2026-05-06 18:20 | 47.75504 | 13.38642 | 21786 ft | 345 kts | 243° |
| 2026-05-06 18:20 | 47.74425 | 13.35477 | 21386 ft | 342 kts | 243° |
| 2026-05-06 18:20 | 47.73348 | 13.32323 | 20935 ft | 341 kts | 243° |
| 2026-05-06 18:21 | 47.72276 | 13.29189 | 20540 ft | 339 kts | 243° |
| 2026-05-06 18:21 | 47.71214 | 13.26090 | 20142 ft | 336 kts | 243° |
| 2026-05-06 18:21 | 47.70152 | 13.22997 | 19729 ft | 335 kts | 243° |
| 2026-05-06 18:21 | 47.69111 | 13.19970 | 19363 ft | 332 kts | 243° |
| 2026-05-06 18:22 | 47.68062 | 13.16928 | 18965 ft | 330 kts | 243° |
| 2026-05-06 18:22 | 47.67023 | 13.13906 | 18626 ft | 327 kts | 243° |
| 2026-05-06 18:22 | 47.65993 | 13.10909 | 18260 ft | 324 kts | 243° |
| 2026-05-06 18:22 | 47.64967 | 13.07934 | 17855 ft | 324 kts | 243° |
| 2026-05-06 18:23 | 47.63942 | 13.04968 | 17482 ft | 322 kts | 243° |
| 2026-05-06 18:23 | 47.62922 | 13.02016 | 17126 ft | 320 kts | 243° |
| 2026-05-06 18:23 | 47.61908 | 12.99089 | 16990 ft | 318 kts | 243° |
| 2026-05-06 18:23 | 47.60890 | 12.96169 | 17007 ft | 319 kts | 243° |
| 2026-05-06 18:24 | 47.59871 | 12.93233 | 17009 ft | 320 kts | 243° |
| 2026-05-06 18:24 | 47.58854 | 12.90298 | 17007 ft | 320 kts | 243° |
| 2026-05-06 18:24 | 47.57843 | 12.87386 | 16959 ft | 321 kts | 243° |
| 2026-05-06 18:24 | 47.56820 | 12.84444 | 16561 ft | 321 kts | 243° |
| 2026-05-06 18:25 | 47.55794 | 12.81507 | 16204 ft | 319 kts | 243° |
| 2026-05-06 18:25 | 47.54780 | 12.78603 | 15890 ft | 316 kts | 243° |
| 2026-05-06 18:25 | 47.53770 | 12.75710 | 15615 ft | 312 kts | 243° |
| 2026-05-06 18:25 | 47.52787 | 12.72902 | 15489 ft | 303 kts | 243° |
| 2026-05-06 18:26 | 47.52148 | 12.71078 | 15399 ft | 298 kts | 243° |
| 2026-05-06 18:26 | 47.50909 | 12.67542 | 15235 ft | 286 kts | 243° |
| 2026-05-06 18:26 | 47.50295 | 12.65791 | 15151 ft | 281 kts | 243° |
| 2026-05-06 18:26 | 47.49412 | 12.63275 | 14960 ft | 277 kts | 243° |
| 2026-05-06 18:27 | 47.48531 | 12.60760 | 14735 ft | 274 kts | 243° |
| 2026-05-06 18:27 | 47.47651 | 12.58262 | 14459 ft | 272 kts | 243° |
| 2026-05-06 18:27 | 47.46778 | 12.55781 | 14208 ft | 270 kts | 243° |
| 2026-05-06 18:27 | 47.45920 | 12.53344 | 14037 ft | 269 kts | 243° |
| 2026-05-06 18:28 | 47.45072 | 12.50941 | 13993 ft | 257 kts | 243° |
| 2026-05-06 18:28 | 47.44249 | 12.48614 | 14004 ft | 255 kts | 243° |
| 2026-05-06 18:28 | 47.43426 | 12.46296 | 14007 ft | 255 kts | 243° |
| 2026-05-06 18:28 | 47.42602 | 12.43976 | 14014 ft | 254 kts | 243° |
| 2026-05-06 18:29 | 47.41801 | 12.41717 | 14012 ft | 241 kts | 243° |
| 2026-05-06 18:29 | 47.41048 | 12.39584 | 14000 ft | 228 kts | 243° |
| 2026-05-06 18:29 | 47.40436 | 12.37454 | 14002 ft | 224 kts | 251° |
| 2026-05-06 18:29 | 47.40017 | 12.35242 | 14013 ft | 224 kts | 258° |
| 2026-05-06 18:30 | 47.39787 | 12.32975 | 13953 ft | 222 kts | 265° |
| 2026-05-06 18:30 | 47.39747 | 12.30705 | 13699 ft | 220 kts | 272° |
| 2026-05-06 18:30 | 47.39889 | 12.28490 | 13435 ft | 219 kts | 278° |
| 2026-05-06 18:30 | 47.40102 | 12.26276 | 13190 ft | 216 kts | 278° |
| 2026-05-06 18:31 | 47.40311 | 12.24069 | 12837 ft | 217 kts | 278° |
| 2026-05-06 18:31 | 47.40518 | 12.21870 | 12512 ft | 216 kts | 278° |
| 2026-05-06 18:31 | 47.40723 | 12.19685 | 12252 ft | 213 kts | 277° |
| 2026-05-06 18:31 | 47.41068 | 12.17574 | 12184 ft | 213 kts | 297° |
| 2026-05-06 18:32 | 47.42065 | 12.15989 | 12214 ft | 216 kts | 321° |
| 2026-05-06 18:32 | 47.43285 | 12.14697 | 12206 ft | 215 kts | 324° |
| 2026-05-06 18:32 | 47.44521 | 12.13443 | 12204 ft | 215 kts | 324° |
| 2026-05-06 18:32 | 47.45760 | 12.12188 | 12206 ft | 216 kts | 324° |
| 2026-05-06 18:33 | 47.46856 | 12.10697 | 12202 ft | 215 kts | 301° |
| 2026-05-06 18:33 | 47.47217 | 12.08589 | 12204 ft | 215 kts | 266° |
| 2026-05-06 18:33 | 47.46698 | 12.06568 | 12067 ft | 212 kts | 232° |
| 2026-05-06 18:33 | 47.45497 | 12.05341 | 11713 ft | 214 kts | 201° |
| 2026-05-06 18:34 | 47.44084 | 12.04749 | 11385 ft | 214 kts | 195° |
| 2026-05-06 18:34 | 47.42641 | 12.04236 | 11073 ft | 213 kts | 194° |
| 2026-05-06 18:34 | 47.41202 | 12.03731 | 10763 ft | 212 kts | 194° |
| 2026-05-06 18:34 | 47.39792 | 12.03146 | 10429 ft | 210 kts | 206° |
| 2026-05-06 18:35 | 47.38677 | 12.01808 | 10104 ft | 207 kts | 235° |
| 2026-05-06 18:35 | 47.38027 | 11.99930 | 9772 ft | 205 kts | 246° |
| 2026-05-06 18:35 | 47.37429 | 11.98019 | 9704 ft | 206 kts | 246° |
| 2026-05-06 18:35 | 47.36827 | 11.96102 | 9704 ft | 206 kts | 245° |
| 2026-05-06 18:36 | 47.36224 | 11.94182 | 9701 ft | 206 kts | 245° |
| 2026-05-06 18:36 | 47.35621 | 11.92255 | 9706 ft | 208 kts | 245° |
| 2026-05-06 18:36 | 47.35012 | 11.90309 | 9706 ft | 208 kts | 246° |
| 2026-05-06 18:36 | 47.34407 | 11.88382 | 9705 ft | 206 kts | 245° |
| 2026-05-06 18:37 | 47.33805 | 11.86469 | 9704 ft | 205 kts | 245° |
| 2026-05-06 18:37 | 47.33205 | 11.84563 | 9704 ft | 205 kts | 245° |
| 2026-05-06 18:37 | 47.32638 | 11.82637 | 9635 ft | 206 kts | 251° |
| 2026-05-06 18:37 | 47.32257 | 11.80596 | 9388 ft | 206 kts | 257° |
| 2026-05-06 18:38 | 47.31959 | 11.78532 | 9053 ft | 206 kts | 259° |
| 2026-05-06 18:38 | 47.31681 | 11.76491 | 8723 ft | 206 kts | 259° |
| 2026-05-06 18:38 | 47.31397 | 11.74387 | 8376 ft | 208 kts | 259° |
| 2026-05-06 18:38 | 47.31117 | 11.72324 | 8032 ft | 208 kts | 259° |
| 2026-05-06 18:39 | 47.30834 | 11.70237 | 7685 ft | 207 kts | 259° |
| 2026-05-06 18:39 | 47.30551 | 11.68161 | 7344 ft | 206 kts | 259° |
| 2026-05-06 18:39 | 47.30270 | 11.66094 | 6995 ft | 205 kts | 259° |
| 2026-05-06 18:40 | 47.29714 | 11.62023 | 6326 ft | 197 kts | 259° |
| 2026-05-06 18:40 | 47.29447 | 11.60072 | 5998 ft | 192 kts | 259° |
| 2026-05-06 18:40 | 47.29187 | 11.58173 | 5678 ft | 187 kts | 259° |
| 2026-05-06 18:40 | 47.28933 | 11.56321 | 5376 ft | 182 kts | 259° |
| 2026-05-06 18:41 | 47.28686 | 11.54518 | 5083 ft | 176 kts | 258° |
| 2026-05-06 18:41 | 47.28447 | 11.52779 | 4794 ft | 170 kts | 259° |
| 2026-05-06 18:41 | 47.28216 | 11.51100 | 4515 ft | 164 kts | 259° |
| 2026-05-06 18:41 | 47.27993 | 11.49486 | 4254 ft | 156 kts | 259° |
| 2026-05-06 18:42 | 47.27783 | 11.47961 | 3994 ft | 146 kts | 259° |
| 2026-05-06 18:42 | 47.27588 | 11.46546 | 3764 ft | 137 kts | 259° |
| 2026-05-06 18:42 | 47.27400 | 11.45188 | 3534 ft | 134 kts | 259° |
| 2026-05-06 18:42 | 47.27218 | 11.43874 | 3316 ft | 132 kts | 259° |
| 2026-05-06 18:43 | 47.27035 | 11.42553 | 3097 ft | 131 kts | 259° |
| 2026-05-06 18:43 | 47.26854 | 11.41240 | 2878 ft | 130 kts | 258° |
| 2026-05-06 18:43 | 47.26673 | 11.39936 | 2664 ft | 130 kts | 259° |
| 2026-05-06 18:43 | 47.26491 | 11.38625 | 2449 ft | 130 kts | 258° |
| 2026-05-06 18:44 | 47.26322 | 11.37315 | 2216 ft | 130 kts | 262° |
| 2026-05-06 18:44 | 47.26191 | 11.35991 | 1992 ft | 131 kts | 261° |
| 2026-05-06 18:44 | 47.26053 | 11.34722 | 1908 ft | 113 kts | 261° |
| 2026-05-06 18:44 | 47.25960 | 11.33854 | 1909 ft | 35 kts | 261° |
| 2026-05-06 18:45 | 47.25906 | 11.33724 | 1909 ft | 7 kts | 173° |
| 2026-05-06 18:45 | 47.25862 | 11.33769 | 1898 ft | 9 kts | 131° |
| 2026-05-06 18:45 | 47.25821 | 11.33845 | 1901 ft | 10 kts | 124° |
| 2026-05-06 18:45 | 47.25780 | 11.33965 | 1907 ft | 14 kts | 105° |
| 2026-05-06 18:46 | 47.25776 | 11.34111 | 1907 ft | 14 kts | 83° |
| 2026-05-06 18:46 | 47.25793 | 11.34257 | 1907 ft | 15 kts | 80° |
| 2026-05-06 18:46 | 47.25807 | 11.34409 | 1894 ft | 15 kts | 82° |
| 2026-05-06 18:46 | 47.25823 | 11.34565 | 1901 ft | 16 kts | 82° |
| 2026-05-06 18:47 | 47.25836 | 11.34697 | 1907 ft | 10 kts | 79° |
| 2026-05-06 18:47 | 47.25848 | 11.34799 | 1907 ft | 10 kts | 80° |
| 2026-05-06 18:47 | 47.25858 | 11.34898 | 1907 ft | 7 kts | 96° |
| 2026-05-06 18:47 | 47.25822 | 11.34926 | 1907 ft | 6 kts | 171° |
| 2026-05-06 18:48 | 47.25803 | 11.34930 | 1901 ft | 0 kts | 171° |